Time,TemperatureF,DewpointF,PressureIn,WindDirection,WindDirectionDegrees,WindSpeedMPH,WindSpeedGustMPH,Humidity,HourlyPrecipIn,Conditions,Clouds,dailyrainin,SoftwareType,DateUTC
2013-07-16 00:01:00,69.0,68.0,29.44,North,0,0.0,0.0,96,0.00,,,0.00,,2013-07-16 04:01:00,
2013-07-16 00:12:00,69.0,68.0,29.44,North,0,0.0,0.0,96,0.00,,,0.00,,2013-07-16 04:12:00,
2013-07-16 00:22:00,69.0,68.0,29.44,North,0,0.0,0.0,96,0.00,,,0.00,,2013-07-16 04:22:00,
2013-07-16 00:32:00,69.0,68.0,29.44,North,0,0.0,0.0,97,0.00,,,0.00,,2013-07-16 04:32:00,
2013-07-16 00:43:00,69.0,68.0,29.44,North,0,0.0,0.0,97,0.00,,,0.00,,2013-07-16 04:43:00,
2013-07-16 01:01:00,68.0,67.0,29.44,North,0,0.0,0.0,97,0.00,,,0.00,,2013-07-16 05:01:00,
2013-07-16 01:22:00,68.0,67.0,29.44,North,0,0.0,0.0,97,0.00,,,0.00,,2013-07-16 05:22:00,
2013-07-16 01:32:00,68.0,67.0,29.44,North,0,0.0,0.0,97,0.00,,,0.00,,2013-07-16 05:32:00,
2013-07-16 01:43:00,68.0,67.0,29.44,North,0,0.0,0.0,97,0.00,,,0.00,,2013-07-16 05:43:00,
2013-07-16 01:52:00,67.0,66.0,29.44,North,0,0.0,0.0,97,0.00,,,0.00,,2013-07-16 05:52:00,
2013-07-16 02:01:00,67.0,66.0,29.44,North,0,0.0,0.0,97,0.00,,,0.00,,2013-07-16 06:01:00,
2013-07-16 02:32:00,67.0,66.0,29.44,North,0,0.0,0.0,97,0.00,,,0.00,,2013-07-16 06:32:00,
2013-07-16 02:43:00,67.0,66.0,29.44,North,0,0.0,0.0,97,0.00,,,0.00,,2013-07-16 06:43:00,
2013-07-16 02:52:00,67.0,66.0,29.44,North,0,0.0,0.0,97,0.00,,,0.00,,2013-07-16 06:52:00,
2013-07-16 03:01:00,67.0,66.0,29.44,North,0,0.0,0.0,97,0.00,,,0.00,,2013-07-16 07:01:00,
2013-07-16 03:12:00,67.0,66.0,29.44,North,0,0.0,0.0,97,0.00,,,0.00,,2013-07-16 07:12:00,
2013-07-16 03:22:00,67.0,66.0,29.44,North,0,0.0,0.0,97,0.00,,,0.00,,2013-07-16 07:22:00,
2013-07-16 03:32:00,67.0,66.0,29.44,North,0,0.0,0.0,97,0.00,,,0.00,,2013-07-16 07:32:00,
2013-07-16 03:43:00,67.0,66.0,29.44,North,0,0.0,0.0,97,0.00,,,0.00,,2013-07-16 07:43:00,
2013-07-16 03:52:00,67.0,66.0,29.44,North,0,0.0,0.0,97,0.00,,,0.00,,2013-07-16 07:52:00,
2013-07-16 04:01:00,67.0,66.0,29.44,North,0,0.0,0.0,97,0.00,,,0.00,,2013-07-16 08:01:00,
2013-07-16 04:11:00,67.0,66.0,29.44,North,0,0.0,0.0,97,0.00,,,0.00,,2013-07-16 08:11:00,
2013-07-16 04:22:00,66.0,65.0,29.44,North,0,0.0,0.0,97,0.00,,,0.00,,2013-07-16 08:22:00,
2013-07-16 04:32:00,66.0,65.0,29.44,North,0,0.0,0.0,97,0.00,,,0.00,,2013-07-16 08:32:00,
2013-07-16 04:43:00,66.0,65.0,29.44,North,0,0.0,0.0,97,0.00,,,0.00,,2013-07-16 08:43:00,
2013-07-16 04:52:00,66.0,65.0,29.44,North,0,0.0,0.0,97,0.00,,,0.00,,2013-07-16 08:52:00,
2013-07-16 05:01:00,66.0,65.0,29.44,North,0,0.0,0.0,97,0.00,,,0.00,,2013-07-16 09:01:00,
2013-07-16 05:12:00,66.0,65.0,29.44,North,0,0.0,0.0,97,0.00,,,0.00,,2013-07-16 09:12:00,
2013-07-16 05:32:00,65.0,64.0,29.44,North,0,0.0,0.0,97,0.00,,,0.00,,2013-07-16 09:32:00,
2013-07-16 05:42:00,65.0,64.0,29.44,North,0,0.0,0.0,97,0.00,,,0.00,,2013-07-16 09:42:00,
2013-07-16 05:52:00,65.0,64.0,29.44,North,0,0.0,0.0,97,0.00,,,0.00,,2013-07-16 09:52:00,
2013-07-16 06:31:00,65.0,64.0,29.44,North,0,0.0,0.0,97,0.00,,,0.00,,2013-07-16 10:31:00,
2013-07-16 06:43:00,65.0,64.0,29.44,North,0,0.0,0.0,97,0.00,,,0.00,,2013-07-16 10:43:00,
2013-07-16 06:52:00,65.0,64.0,29.44,North,0,0.0,0.0,97,0.00,,,0.00,,2013-07-16 10:52:00,
2013-07-16 07:01:00,65.0,64.0,29.44,North,0,0.0,0.0,97,0.00,,,0.00,,2013-07-16 11:01:00,
2013-07-16 07:32:00,65.0,64.0,29.47,North,0,0.0,0.0,97,0.00,,,0.00,,2013-07-16 11:32:00,
2013-07-16 07:42:00,65.0,64.0,29.47,North,0,0.0,0.0,97,0.00,,,0.00,,2013-07-16 11:42:00,
2013-07-16 08:01:00,66.0,65.0,29.47,North,0,0.0,0.0,97,0.00,,,0.00,,2013-07-16 12:01:00,
2013-07-16 08:11:00,66.0,65.0,29.47,North,0,0.0,0.0,97,0.00,,,0.00,,2013-07-16 12:11:00,
2013-07-16 08:22:00,66.0,65.0,29.47,North,0,0.0,0.0,97,0.00,,,0.00,,2013-07-16 12:22:00,
2013-07-16 11:43:00,86.0,63.0,29.47,West,281,3.0,7.0,46,0.00,,,0.00,,2013-07-16 15:43:00,
2013-07-16 12:01:00,85.0,67.0,29.47,North,0,0.0,9.0,55,0.00,,,0.00,,2013-07-16 16:01:00,
2013-07-16 12:22:00,85.0,65.0,29.47,WSW,249,4.0,8.0,51,0.00,,,0.00,,2013-07-16 16:22:00,
2013-07-16 12:32:00,85.0,66.0,29.47,West,276,4.0,8.0,53,0.00,,,0.00,,2013-07-16 16:32:00,
2013-07-16 12:43:00,86.0,65.0,29.47,SW,217,3.0,5.0,49,0.00,,,0.00,,2013-07-16 16:43:00,
2013-07-16 12:52:00,86.0,65.0,29.47,SW,217,3.0,5.0,49,0.00,,,0.00,,2013-07-16 16:52:00,
2013-07-16 13:02:00,86.0,66.0,29.47,West,275,4.0,7.0,51,0.00,,,0.00,,2013-07-16 17:02:00,
2013-07-16 13:12:00,86.0,65.0,29.47,West,277,4.0,9.0,50,0.00,,,0.00,,2013-07-16 17:12:00,
2013-07-16 13:22:00,86.0,65.0,29.47,West,277,4.0,9.0,50,0.00,,,0.00,,2013-07-16 17:22:00,
2013-07-16 13:33:00,87.0,65.0,29.47,SSW,192,5.0,7.0,49,0.00,,,0.00,,2013-07-16 17:33:00,
2013-07-16 13:43:00,87.0,68.0,29.47,West,271,4.0,7.0,53,0.00,,,0.00,,2013-07-16 17:43:00,
2013-07-16 13:53:00,87.0,68.0,29.47,West,271,4.0,7.0,53,0.00,,,0.00,,2013-07-16 17:53:00,
2013-07-16 14:01:00,87.0,68.0,29.47,West,271,4.0,7.0,53,0.00,,,0.00,,2013-07-16 18:01:00,
2013-07-16 14:11:00,87.0,66.0,29.47,WSW,242,4.0,7.0,50,0.00,,,0.00,,2013-07-16 18:11:00,
2013-07-16 14:33:00,87.0,64.0,29.44,North,0,0.0,10.0,47,0.00,,,0.00,,2013-07-16 18:33:00,
2013-07-16 14:43:00,87.0,64.0,29.44,WSW,250,4.0,7.0,47,0.00,,,0.00,,2013-07-16 18:43:00,
2013-07-16 14:53:00,87.0,64.0,29.44,WSW,250,4.0,7.0,47,0.00,,,0.00,,2013-07-16 18:53:00,
2013-07-16 15:01:00,86.0,63.0,29.44,WNW,286,4.0,10.0,47,0.00,,,0.00,,2013-07-16 19:01:00,
2013-07-16 15:11:00,87.0,67.0,29.44,WNW,300,4.0,9.0,52,0.00,,,0.00,,2013-07-16 19:11:00,
2013-07-16 15:32:00,88.0,66.0,29.44,North,0,0.0,6.0,49,0.00,,,0.00,,2013-07-16 19:32:00,
2013-07-16 15:43:00,88.0,66.0,29.44,North,0,0.0,6.0,49,0.00,,,0.00,,2013-07-16 19:43:00,
2013-07-16 16:03:00,89.0,68.0,29.41,North,0,0.0,7.0,50,0.00,,,0.00,,2013-07-16 20:03:00,
2013-07-16 16:22:00,87.0,64.0,29.41,West,275,4.0,7.0,46,0.00,,,0.00,,2013-07-16 20:22:00,
2013-07-16 16:32:00,87.0,62.0,29.41,WNW,302,3.0,8.0,44,0.00,,,0.00,,2013-07-16 20:32:00,
2013-07-16 16:43:00,87.0,62.0,29.41,WNW,302,3.0,8.0,44,0.00,,,0.00,,2013-07-16 20:43:00,
2013-07-16 16:52:00,87.0,65.0,29.41,North,0,0.0,7.0,48,0.00,,,0.00,,2013-07-16 20:52:00,
2013-07-16 17:01:00,87.0,65.0,29.41,North,0,0.0,7.0,48,0.00,,,0.00,,2013-07-16 21:01:00,
2013-07-16 17:11:00,88.0,68.0,29.41,North,0,0.0,5.0,51,0.00,,,0.00,,2013-07-16 21:11:00,
2013-07-16 17:22:00,87.0,63.0,29.41,North,0,0.0,6.0,45,0.00,,,0.00,,2013-07-16 21:22:00,
2013-07-16 17:32:00,87.0,63.0,29.41,North,0,0.0,6.0,45,0.00,,,0.00,,2013-07-16 21:32:00,
2013-07-16 17:52:00,86.0,65.0,29.41,North,0,0.0,6.0,49,0.00,,,0.00,,2013-07-16 21:52:00,
2013-07-16 18:01:00,87.0,65.0,29.41,West,264,3.0,6.0,48,0.00,,,0.00,,2013-07-16 22:01:00,
2013-07-16 18:11:00,87.0,65.0,29.41,West,264,3.0,6.0,48,0.00,,,0.00,,2013-07-16 22:11:00,
2013-07-16 18:33:00,87.0,68.0,29.41,North,0,0.0,6.0,53,0.00,,,0.00,,2013-07-16 22:33:00,
2013-07-16 18:43:00,87.0,65.0,29.38,WNW,299,3.0,5.0,48,0.00,,,0.00,,2013-07-16 22:43:00,
2013-07-16 18:52:00,87.0,65.0,29.38,WNW,299,3.0,5.0,48,0.00,,,0.00,,2013-07-16 22:52:00,
2013-07-16 19:01:00,87.0,65.0,29.38,WNW,299,3.0,5.0,48,0.00,,,0.00,,2013-07-16 23:01:00,
2013-07-16 19:22:00,86.0,68.0,29.38,North,0,0.0,4.0,55,0.00,,,0.00,,2013-07-16 23:22:00,
2013-07-16 19:32:00,86.0,66.0,29.38,North,0,0.0,4.0,52,0.00,,,0.00,,2013-07-16 23:32:00,
2013-07-16 19:43:00,86.0,66.0,29.38,North,0,0.0,4.0,52,0.00,,,0.00,,2013-07-16 23:43:00,
2013-07-16 19:52:00,84.0,68.0,29.38,North,0,0.0,0.0,58,0.00,,,0.00,,2013-07-16 23:52:00,
2013-07-16 20:01:00,83.0,69.0,29.38,North,0,0.0,0.0,63,0.00,,,0.00,,2013-07-17 00:01:00,
2013-07-16 20:11:00,83.0,69.0,29.38,North,0,0.0,0.0,63,0.00,,,0.00,,2013-07-17 00:11:00,
2013-07-16 20:22:00,83.0,69.0,29.38,North,0,0.0,0.0,63,0.00,,,0.00,,2013-07-17 00:22:00,
2013-07-16 20:42:00,80.0,71.0,29.38,North,0,0.0,4.0,74,0.00,,,0.00,,2013-07-17 00:42:00,
2013-07-16 20:52:00,79.0,72.0,29.41,North,0,0.0,0.0,78,0.00,,,0.00,,2013-07-17 00:52:00,
2013-07-16 21:01:00,78.0,71.0,29.41,North,0,0.0,0.0,79,0.00,,,0.00,,2013-07-17 01:01:00,
2013-07-16 21:11:00,78.0,71.0,29.41,North,0,0.0,3.0,79,0.00,,,0.00,,2013-07-17 01:11:00,
2013-07-16 21:32:00,76.0,71.0,29.41,North,0,0.0,0.0,84,0.00,,,0.00,,2013-07-17 01:32:00,
2013-07-16 21:43:00,76.0,71.0,29.41,North,0,0.0,0.0,84,0.00,,,0.00,,2013-07-17 01:43:00,
2013-07-16 21:53:00,76.0,71.0,29.41,North,0,0.0,0.0,84,0.00,,,0.00,,2013-07-17 01:53:00,
2013-07-16 22:01:00,75.0,70.0,29.41,North,0,0.0,0.0,85,0.00,,,0.00,,2013-07-17 02:01:00,
2013-07-16 22:32:00,74.0,70.0,29.41,North,0,0.0,0.0,88,0.00,,,0.00,,2013-07-17 02:32:00,
2013-07-16 22:43:00,74.0,70.0,29.41,North,0,0.0,0.0,88,0.00,,,0.00,,2013-07-17 02:43:00,
2013-07-16 22:53:00,73.0,70.0,29.44,North,0,0.0,0.0,90,0.00,,,0.00,,2013-07-17 02:53:00,
2013-07-16 23:01:00,73.0,70.0,29.44,North,0,0.0,0.0,90,0.00,,,0.00,,2013-07-17 03:01:00,
2013-07-16 23:11:00,72.0,70.0,29.44,North,0,0.0,0.0,92,0.00,,,0.00,,2013-07-17 03:11:00,
2013-07-16 23:22:00,72.0,70.0,29.44,North,0,0.0,0.0,92,0.00,,,0.00,,2013-07-17 03:22:00,
2013-07-16 23:32:00,72.0,70.0,29.44,North,0,0.0,0.0,93,0.00,,,0.00,,2013-07-17 03:32:00,
2013-07-16 23:43:00,72.0,70.0,29.44,North,0,0.0,0.0,93,0.00,,,0.00,,2013-07-17 03:43:00,
2013-07-16 23:53:00,72.0,70.0,29.44,North,0,0.0,0.0,93,0.00,,,0.00,,2013-07-17 03:53:00,